createdAt,value
2023-04-12T00:02:16.404Z,31.90
2023-04-12T00:04:47.153Z,30.67
2023-04-12T00:07:20.812Z,29.90
2023-04-12T00:09:51.328Z,30.30
2023-04-12T00:12:23.184Z,31.02
2023-04-12T00:14:53.643Z,29.83
2023-04-12T00:17:24.129Z,28.42
2023-04-12T00:19:54.798Z,29.77
2023-04-12T00:22:25.241Z,30.15
2023-04-12T00:24:55.382Z,30.17
2023-04-12T00:27:25.667Z,30.97
2023-04-12T00:29:55.920Z,30.85
2023-04-12T00:32:26.277Z,29.35
2023-04-12T00:34:56.439Z,30.13
2023-04-12T00:37:26.769Z,30.58
2023-04-12T00:39:57.009Z,31.60
2023-04-12T00:42:27.926Z,31.55
2023-04-12T00:44:58.565Z,31.67
2023-04-12T00:47:31.935Z,31.90
2023-04-12T00:50:02.906Z,32.75
2023-04-12T00:52:36.644Z,32.35
2023-04-12T00:55:08.499Z,33.28
2023-04-12T00:57:42.729Z,32.22
2023-04-12T01:00:15.097Z,32.78
2023-04-12T01:02:53.306Z,33.17
2023-04-12T01:05:26.437Z,32.47
2023-04-12T01:08:03.433Z,32.30
2023-04-12T01:10:44.532Z,31.42
2023-04-12T01:16:09.983Z,32.35
2023-04-12T01:18:46.049Z,34.63
2023-04-12T01:21:21.139Z,33.40
2023-04-12T01:24:16.522Z,32.20
2023-04-12T01:26:49.301Z,32.95
2023-04-12T01:29:22.949Z,31.73
2023-04-12T01:32:00.709Z,32.67
2023-04-12T01:34:36.139Z,32.85
2023-04-12T01:37:07.734Z,34.78
2023-04-12T01:39:38.641Z,33.28
2023-04-12T01:42:09.090Z,32.80
2023-04-12T01:44:39.539Z,35.37
2023-04-12T01:47:10.012Z,33.03
2023-04-12T01:50:06.770Z,34.28
2023-04-12T01:53:20.342Z,34.17
2023-04-12T01:55:58.703Z,35.45
2023-04-12T01:58:32.041Z,37.20
2023-04-12T02:01:04.097Z,34.08
2023-04-12T02:03:35.046Z,34.10
2023-04-12T02:06:06.346Z,32.60
2023-04-12T02:08:36.995Z,35.03
2023-04-12T02:11:14.369Z,38.15
2023-04-12T02:13:47.480Z,34.33
2023-04-12T02:16:19.207Z,37.95
2023-04-12T02:18:49.980Z,38.72
2023-04-12T02:21:20.895Z,32.92
2023-04-12T02:23:51.304Z,34.38
2023-04-12T02:26:21.650Z,34.47
2023-04-12T02:28:52.198Z,37.10
2023-04-12T02:31:22.774Z,36.17
2023-04-12T02:33:53.707Z,37.45
2023-04-12T02:36:24.407Z,35.87
2023-04-12T02:38:54.596Z,36.67
2023-04-12T02:41:26.894Z,35.92
2023-04-12T02:43:58.075Z,37.20
2023-04-12T02:49:16.821Z,36.58
2023-04-12T02:51:47.771Z,40.10
2023-04-12T02:54:27.798Z,37.80
2023-04-12T02:56:59.621Z,38.45
2023-04-12T02:59:51.351Z,37.80
2023-04-12T03:02:26.517Z,37.47
2023-04-12T03:05:02.335Z,37.88
2023-04-12T03:07:42.557Z,39.70
2023-04-12T03:12:52.120Z,39.15
2023-04-12T03:15:25.979Z,39.00
2023-04-12T03:17:56.731Z,38.88
2023-04-12T03:20:31.995Z,40.50
2023-04-12T03:23:08.779Z,39.85
2023-04-12T03:25:43.301Z,39.35
2023-04-12T03:28:34.367Z,38.95
2023-04-12T03:31:08.052Z,39.17
2023-04-12T03:33:44.635Z,39.40
2023-04-12T03:36:24.226Z,39.33
2023-04-12T03:39:00.016Z,39.35
2023-04-12T03:41:32.031Z,40.72
2023-04-12T03:44:06.231Z,41.55
2023-04-12T03:46:38.745Z,39.78
2023-04-12T03:49:13.461Z,40.88
2023-04-12T03:51:45.483Z,41.90
2023-04-12T03:54:16.373Z,39.88
2023-04-12T03:57:00.253Z,40.60
2023-04-12T03:59:52.139Z,42.25
2023-04-12T04:02:28.954Z,41.60
2023-04-12T04:05:01.135Z,40.85
2023-04-12T04:07:34.319Z,41.53
2023-04-12T04:10:08.050Z,39.72
2023-04-12T04:12:42.047Z,43.85
2023-04-12T04:15:17.310Z,42.55
2023-04-12T04:17:50.374Z,43.75
2023-04-12T04:20:22.977Z,44.55
2023-04-12T04:22:55.917Z,45.95
2023-04-12T04:25:32.513Z,47.38
2023-04-12T04:28:08.148Z,47.80
2023-04-12T04:30:41.372Z,47.50
2023-04-12T04:33:18.322Z,45.50
2023-04-12T04:35:49.338Z,46.22
2023-04-12T04:38:29.210Z,45.08
2023-04-12T04:41:09.281Z,45.35
2023-04-12T04:44:02.937Z,47.55
2023-04-12T04:46:34.697Z,45.88
2023-04-12T04:49:05.083Z,46.67
2023-04-12T04:51:35.819Z,47.30
2023-04-12T04:54:08.254Z,46.70
2023-04-12T04:56:42.751Z,48.15
2023-04-12T04:59:15.674Z,46.97
2023-04-12T05:01:47.267Z,48.63
2023-04-12T05:04:20.516Z,47.70
2023-04-12T05:06:51.422Z,48.30
2023-04-12T05:09:25.088Z,46.08
2023-04-12T05:11:59.379Z,48.45
2023-04-12T05:14:44.004Z,47.33
2023-04-12T05:17:17.420Z,46.42
2023-04-12T05:19:47.801Z,47.07
2023-04-12T05:22:23.838Z,46.90
2023-04-12T05:24:54.166Z,48.95
2023-04-12T05:27:24.766Z,50.10
2023-04-12T05:29:55.349Z,49.60
2023-04-12T05:32:28.425Z,48.55
2023-04-12T05:34:59.170Z,49.05
2023-04-12T05:37:30.974Z,46.38
2023-04-12T05:40:01.442Z,47.70
2023-04-12T05:42:31.846Z,46.57
2023-04-12T05:45:03.606Z,48.17
2023-04-12T05:47:35.942Z,47.75
2023-04-12T05:50:07.111Z,48.73
2023-04-12T05:55:09.664Z,50.25
2023-04-12T05:57:43.780Z,49.13
2023-04-12T06:00:21.416Z,47.10
2023-04-12T06:02:52.827Z,47.95
2023-04-12T06:05:23.499Z,47.75
2023-04-12T06:07:54.137Z,47.55
2023-04-12T06:10:24.483Z,48.80
2023-04-12T06:12:56.580Z,47.70
2023-04-12T06:15:27.122Z,47.40
2023-04-12T06:17:58.006Z,46.70
2023-04-12T06:20:28.696Z,48.67
2023-04-12T06:23:00.455Z,48.35
2023-04-12T06:25:30.986Z,48.70
2023-04-12T06:28:01.740Z,45.42
2023-04-12T06:30:32.824Z,48.90
2023-04-12T06:33:03.146Z,48.63
2023-04-12T06:35:34.806Z,49.97
2023-04-12T06:38:06.157Z,48.75
2023-04-12T06:40:36.552Z,47.57
2023-04-12T06:43:06.825Z,49.00
2023-04-12T06:45:37.032Z,48.35
2023-04-12T06:48:07.415Z,48.75
2023-04-12T06:50:38.158Z,48.47
2023-04-12T06:53:08.421Z,48.70
2023-04-12T06:55:38.766Z,46.80
2023-04-12T06:58:09.101Z,48.35
2023-04-12T07:00:40.275Z,49.92
2023-04-12T07:05:42.154Z,48.63
2023-04-12T07:08:12.463Z,46.53
2023-04-12T07:10:42.732Z,47.13
2023-04-12T07:13:12.970Z,48.92
2023-04-12T07:15:43.269Z,48.75
2023-04-12T07:18:13.481Z,48.35
2023-04-12T07:20:44.051Z,46.40
2023-04-12T07:23:14.367Z,47.03
2023-04-12T07:25:45.287Z,46.95
2023-04-12T07:28:15.580Z,47.15
2023-04-12T07:30:45.950Z,47.40
2023-04-12T07:33:19.649Z,45.83
2023-04-12T07:35:50.372Z,46.80
2023-04-12T07:38:20.687Z,45.63
2023-04-12T07:40:50.814Z,45.97
2023-04-12T07:43:20.916Z,42.22
2023-04-12T07:45:51.903Z,41.83
2023-04-12T07:50:52.088Z,42.95
2023-04-12T07:53:27.788Z,42.92
2023-04-12T07:55:59.116Z,41.92
2023-04-12T07:58:29.523Z,43.83
2023-04-12T08:01:01.261Z,41.90
2023-04-12T08:03:31.989Z,42.40
2023-04-12T08:06:02.699Z,42.38
2023-04-12T08:08:33.008Z,42.15
2023-04-12T08:11:05.345Z,42.13
2023-04-12T08:13:36.733Z,41.00
2023-04-12T08:16:07.600Z,41.15
2023-04-12T08:18:37.977Z,42.08
2023-04-12T08:21:08.636Z,41.43
2023-04-12T08:23:39.094Z,40.90
2023-04-12T08:26:09.743Z,40.50
2023-04-12T08:28:40.179Z,40.37
2023-04-12T08:31:11.227Z,40.70
2023-04-12T08:33:41.618Z,38.50
2023-04-12T08:36:12.740Z,39.60
2023-04-12T08:38:45.969Z,39.45
2023-04-12T08:41:17.061Z,40.20
2023-04-12T08:43:48.746Z,36.53
2023-04-12T08:46:20.079Z,38.45
2023-04-12T08:51:24.051Z,37.60
2023-04-12T08:53:56.727Z,37.63
2023-04-12T08:56:27.783Z,36.95
2023-04-12T08:58:58.259Z,38.88
2023-04-12T09:01:29.051Z,37.40
2023-04-12T09:03:59.798Z,36.35
2023-04-12T09:09:00.712Z,39.17
2023-04-12T09:11:31.879Z,37.15
2023-04-12T09:14:02.521Z,37.45
2023-04-12T09:16:44.606Z,37.08
2023-04-12T09:19:15.065Z,37.47
2023-04-12T09:22:01.030Z,37.42
2023-04-12T09:24:32.476Z,37.08
2023-04-12T09:27:07.478Z,37.28
2023-04-12T09:29:37.860Z,38.10
2023-04-12T09:32:10.038Z,36.80
2023-04-12T09:34:41.242Z,37.25
2023-04-12T09:39:50.813Z,37.20
2023-04-12T09:44:57.068Z,37.05
2023-04-12T09:47:40.576Z,37.03
2023-04-12T09:50:12.065Z,37.42
2023-04-12T09:52:42.793Z,36.42
2023-04-12T09:55:13.909Z,37.42
2023-04-12T09:57:46.054Z,36.53
2023-04-12T10:00:20.245Z,35.70
2023-04-12T10:02:53.477Z,36.67
2023-04-12T10:05:28.494Z,36.22
2023-04-12T10:08:02.880Z,36.35
2023-04-12T10:10:34.213Z,34.55
2023-04-12T10:13:04.919Z,35.90
2023-04-12T10:15:37.404Z,35.80
2023-04-12T10:18:11.725Z,34.63
2023-04-12T10:20:44.424Z,35.13
2023-04-12T10:23:19.609Z,34.75
2023-04-12T10:25:52.937Z,37.35
2023-04-12T10:28:25.407Z,34.95
2023-04-12T10:31:00.556Z,35.88
2023-04-12T10:33:33.194Z,35.42
2023-04-12T10:36:14.726Z,35.28
2023-04-12T10:38:49.766Z,33.58
2023-04-12T10:41:23.624Z,35.70
2023-04-12T10:43:55.320Z,34.33
2023-04-12T10:46:50.428Z,35.53
2023-04-12T10:49:21.144Z,34.90
2023-04-12T10:52:12.634Z,34.70
2023-04-12T10:54:43.180Z,35.92
2023-04-12T10:57:46.078Z,34.58
2023-04-12T11:00:17.179Z,34.53
2023-04-12T11:03:14.596Z,34.28
2023-04-12T11:06:24.083Z,35.58
2023-04-12T11:09:28.063Z,35.13
2023-04-12T11:12:10.389Z,34.50
2023-04-12T11:14:48.667Z,35.58
2023-04-12T11:17:19.487Z,34.50
2023-04-12T11:19:53.968Z,34.13
2023-04-12T11:22:26.628Z,35.75
2023-04-12T11:24:59.713Z,33.60
2023-04-12T11:27:31.590Z,34.88
2023-04-12T11:30:03.769Z,33.92
2023-04-12T11:32:37.942Z,34.95
2023-04-12T11:35:08.743Z,35.70
2023-04-12T11:37:41.428Z,37.00
2023-04-12T11:40:13.013Z,32.45
2023-04-12T11:42:43.727Z,35.72
2023-04-12T11:45:18.155Z,35.03
2023-04-12T11:47:49.044Z,33.08
2023-04-12T11:50:32.621Z,35.73
2023-04-12T11:53:16.229Z,35.80
2023-04-12T11:55:52.062Z,36.17
2023-04-12T11:58:27.890Z,36.90
2023-04-12T12:01:02.323Z,35.28
2023-04-12T12:03:32.985Z,35.33
2023-04-12T12:06:04.161Z,35.47
2023-04-12T12:11:08.493Z,35.33
2023-04-12T12:13:55.332Z,34.75
2023-04-12T12:16:31.239Z,35.00
2023-04-12T12:19:01.715Z,37.55
2023-04-12T12:21:33.941Z,35.37
2023-04-12T12:24:04.763Z,34.60
2023-04-12T12:26:35.240Z,37.15
2023-04-12T12:29:05.581Z,33.87
2023-04-12T12:31:36.066Z,34.17
2023-04-12T12:34:09.114Z,35.97
2023-04-12T12:36:41.131Z,36.97
2023-04-12T12:39:14.983Z,32.85
2023-04-12T12:41:45.439Z,34.08
2023-04-12T12:44:15.701Z,39.03
2023-04-12T12:46:55.310Z,36.42
2023-04-12T12:49:31.396Z,32.78
2023-04-12T12:52:01.787Z,37.38
2023-04-12T12:54:39.514Z,36.27
2023-04-12T14:39:09.382Z,35.63
2023-04-12T14:41:41.486Z,35.53
2023-04-12T14:44:11.951Z,33.10
2023-04-12T14:46:42.319Z,33.40
2023-04-12T14:49:12.490Z,32.60
2023-04-12T14:51:43.160Z,34.42
2023-04-12T14:54:13.374Z,36.03
2023-04-12T14:56:50.921Z,37.15
2023-04-12T14:59:22.955Z,35.97
2023-04-12T15:01:54.834Z,35.70
2023-04-12T15:04:25.137Z,35.03
2023-04-12T15:06:55.630Z,36.37
2023-04-12T15:09:25.768Z,34.92
2023-04-12T15:12:03.410Z,35.33
2023-04-12T15:14:33.789Z,34.70
2023-04-12T15:17:04.129Z,37.40
2023-04-12T15:19:34.503Z,36.37
2023-04-12T15:22:04.980Z,36.70
2023-04-12T15:24:36.330Z,35.63
2023-04-12T15:27:07.856Z,35.25
2023-04-12T15:29:38.302Z,35.40
2023-04-12T15:32:08.749Z,35.22
2023-04-12T15:34:38.975Z,35.27
2023-04-12T15:37:09.182Z,36.83
2023-04-12T15:39:39.713Z,33.60
2023-04-12T15:42:10.102Z,35.70
2023-04-12T15:44:40.373Z,35.60
2023-04-12T15:47:11.950Z,34.20
2023-04-12T15:49:42.732Z,37.38
2023-04-12T15:52:12.962Z,35.20
2023-04-12T15:54:44.783Z,35.47
2023-04-12T15:57:15.177Z,35.15
2023-04-12T15:59:45.988Z,34.43
2023-04-12T16:02:16.291Z,33.60
2023-04-12T16:04:47.016Z,34.70
2023-04-12T16:07:17.248Z,33.97
2023-04-12T16:09:48.076Z,34.67
2023-04-12T16:12:18.440Z,33.78
2023-04-12T16:14:50.664Z,35.83
2023-04-12T16:17:23.374Z,34.78
2023-04-12T16:19:53.873Z,34.72
2023-04-12T16:22:24.143Z,35.83
2023-04-12T16:24:54.833Z,34.53
2023-04-12T16:27:25.266Z,36.17
2023-04-12T16:29:55.704Z,34.57
2023-04-12T16:32:25.993Z,34.38
2023-04-12T16:34:56.497Z,35.57
2023-04-12T16:37:27.491Z,34.87
2023-04-12T16:42:30.691Z,33.83
2023-04-12T16:45:01.315Z,35.47
2023-04-12T16:47:31.986Z,34.15
2023-04-12T16:50:02.385Z,35.73
2023-04-12T16:52:36.017Z,33.73
2023-04-12T16:55:07.136Z,33.60
2023-04-12T17:00:21.835Z,34.83
2023-04-12T17:02:54.331Z,34.17
2023-04-12T17:05:26.227Z,34.55
2023-04-12T17:07:58.040Z,34.33
2023-04-12T17:10:29.154Z,33.88
2023-04-12T17:15:33.925Z,32.85
2023-04-12T17:18:13.285Z,34.03
2023-04-12T17:20:44.308Z,33.92
2023-04-12T17:23:15.913Z,33.22
2023-04-12T17:25:46.750Z,34.83
2023-04-12T17:28:17.849Z,32.20
2023-04-12T17:30:48.413Z,33.72
2023-04-12T17:33:20.451Z,31.60
2023-04-12T17:35:50.794Z,31.88
2023-04-12T17:38:21.121Z,32.37
2023-04-12T17:40:51.757Z,33.33
2023-04-12T17:43:22.152Z,31.67
2023-04-12T17:45:52.709Z,32.42
2023-04-12T17:48:23.036Z,32.80
2023-04-12T17:50:53.465Z,31.63
2023-04-12T17:53:24.667Z,33.55
2023-04-12T17:58:24.786Z,33.28
2023-04-12T18:00:55.140Z,32.30
2023-04-12T18:03:25.846Z,31.70
2023-04-12T18:05:57.944Z,32.55
2023-04-12T18:08:28.308Z,32.65
2023-04-12T18:10:58.551Z,31.90
2023-04-12T18:13:28.620Z,33.63
2023-04-12T18:15:58.886Z,32.05
2023-04-12T18:18:29.136Z,32.77
2023-04-12T18:20:59.450Z,32.00
2023-04-12T18:23:29.794Z,32.05
2023-04-12T18:26:00.420Z,33.45
2023-04-12T18:28:37.999Z,33.25
2023-04-12T18:31:09.388Z,33.15
2023-04-12T18:33:39.753Z,33.63
2023-04-12T18:36:12.249Z,33.30
2023-04-12T18:38:42.631Z,33.70
2023-04-12T18:41:19.896Z,33.30
2023-04-12T18:43:50.264Z,32.22
2023-04-12T18:46:21.328Z,34.80
2023-04-12T18:51:25.717Z,32.17
2023-04-12T18:56:26.772Z,33.22
2023-04-12T19:01:28.191Z,32.90
2023-04-12T19:03:58.985Z,33.72
2023-04-12T19:06:29.635Z,33.60
2023-04-12T19:08:59.940Z,33.57
2023-04-12T19:11:30.327Z,32.58
2023-04-12T19:14:02.048Z,31.47
2023-04-12T19:16:32.604Z,32.92
2023-04-12T19:19:03.135Z,33.20
2023-04-12T19:21:34.331Z,34.45
2023-04-12T19:24:04.712Z,32.83
2023-04-12T19:26:39.003Z,32.40
2023-04-12T19:29:09.239Z,32.03
2023-04-12T19:31:39.466Z,30.35
2023-04-12T19:34:09.909Z,33.13
2023-04-12T19:36:40.406Z,32.63
2023-04-12T19:39:10.515Z,34.45
2023-04-12T19:41:40.645Z,33.78
2023-04-12T19:44:11.258Z,33.23
2023-04-12T19:46:41.473Z,34.17
2023-04-12T19:49:12.017Z,33.28
2023-04-12T19:51:42.377Z,33.10
2023-04-12T19:54:12.690Z,33.73
2023-04-12T19:56:42.916Z,31.80
2023-04-12T19:59:13.131Z,33.88
2023-04-12T20:01:52.852Z,32.80
2023-04-12T20:04:24.546Z,33.75
2023-04-12T20:06:55.071Z,33.53
2023-04-12T20:09:25.399Z,32.87
2023-04-12T20:11:56.075Z,32.43
2023-04-12T20:14:27.049Z,33.27
2023-04-12T20:19:30.172Z,32.90
2023-04-12T20:24:55.558Z,33.38
2023-04-12T20:27:26.049Z,32.97
2023-04-12T20:29:56.245Z,32.97
2023-04-12T20:32:26.745Z,31.87
2023-04-12T20:34:57.252Z,34.50
2023-04-12T20:37:45.912Z,35.10
2023-04-12T20:40:16.229Z,34.33
2023-04-12T20:42:47.698Z,33.90
2023-04-12T20:45:20.216Z,32.13
2023-04-12T20:47:51.118Z,33.70
2023-04-12T20:50:25.355Z,34.17
2023-04-12T20:52:55.860Z,36.05
2023-04-12T20:55:30.877Z,34.80
2023-04-12T20:58:04.002Z,35.15
2023-04-12T21:00:36.168Z,34.22
2023-04-12T21:03:07.127Z,34.80
2023-04-12T21:05:38.058Z,34.63
2023-04-12T21:08:09.930Z,34.08
2023-04-12T21:10:40.486Z,33.83
2023-04-12T21:13:10.742Z,33.13
2023-04-12T21:15:41.022Z,33.53
2023-04-12T21:18:11.635Z,34.17
2023-04-12T21:20:41.890Z,34.17
2023-04-12T21:23:12.158Z,33.13
2023-04-12T21:25:42.485Z,34.00
2023-04-12T21:28:32.130Z,33.78
2023-04-12T21:31:02.408Z,33.72
2023-04-12T21:33:34.583Z,32.47
2023-04-12T21:36:04.895Z,33.88
2023-04-12T21:38:35.135Z,32.58
2023-04-12T21:41:10.240Z,32.63
2023-04-12T21:43:41.581Z,33.15
2023-04-12T21:46:12.701Z,34.03
2023-04-12T21:48:43.146Z,33.42
2023-04-12T21:53:58.746Z,32.22
2023-04-12T21:56:28.882Z,34.10
2023-04-12T21:59:05.793Z,34.67
2023-04-12T22:01:37.413Z,33.78
2023-04-12T22:04:08.328Z,33.53
2023-04-12T22:06:38.645Z,35.50
2023-04-12T22:09:08.952Z,35.03
2023-04-12T22:11:39.332Z,34.70
2023-04-12T22:14:10.221Z,32.83
2023-04-12T22:16:40.899Z,35.47
2023-04-12T22:19:11.739Z,34.80
2023-04-12T22:21:42.638Z,36.22
2023-04-12T22:24:13.073Z,32.90
2023-04-12T22:26:43.126Z,33.78
2023-04-12T22:29:13.452Z,34.30
2023-04-12T22:31:45.890Z,32.58
2023-04-12T22:34:16.339Z,34.92
2023-04-12T22:36:48.953Z,33.63
2023-04-12T22:39:20.574Z,35.55
2023-04-12T22:42:09.188Z,34.03
2023-04-12T22:44:42.330Z,35.57
2023-04-12T22:47:31.246Z,35.17
2023-04-12T22:50:03.703Z,34.47
2023-04-12T22:52:34.425Z,33.53
2023-04-12T22:55:04.754Z,35.83
2023-04-12T22:57:35.535Z,34.13
2023-04-12T23:02:56.185Z,35.47
2023-04-12T23:05:27.738Z,33.53
2023-04-12T23:07:58.482Z,35.05
2023-04-12T23:10:29.079Z,34.70
2023-04-12T23:12:59.313Z,35.27
2023-04-12T23:15:29.681Z,34.90
2023-04-12T23:18:00.077Z,34.60
2023-04-12T23:20:32.373Z,34.50
2023-04-12T23:23:02.767Z,35.05
2023-04-12T23:25:43.238Z,34.90
2023-04-12T23:28:18.378Z,36.03
2023-04-12T23:30:52.418Z,34.95
2023-04-12T23:33:24.560Z,37.15
2023-04-12T23:35:55.219Z,33.83
2023-04-12T23:38:28.521Z,36.17
2023-04-12T23:40:58.966Z,35.65
2023-04-12T23:43:29.419Z,36.00
2023-04-12T23:45:59.999Z,34.60
2023-04-12T23:48:30.730Z,38.53
2023-04-12T23:51:02.835Z,37.13
2023-04-12T23:53:33.382Z,37.60
2023-04-12T23:56:03.804Z,38.93
2023-04-12T23:58:34.110Z,41.57
